バーレーン国際空港の過去48時間の天気

バーレーン国際空港 (Bahrain International Airport )

現在時刻: 9/22 20:57 +03 (9/22 17:57 UTC) 以下の時間は現地時間です。

過去48時間のMETAR気象情報
時間 風向 風速(m/s) 視程 気温(℃) 湿度(%) 気圧(hPa) 天気現象
22 20:30 不定 1 10km以上 34 50 1004
22 20:00 不定 1 10km以上 33 53 1003
22 19:30 北東 2 10km以上 34 50 1003
22 19:00 2 10km以上 35 44 1003
22 18:30 北北東 2 10km以上 35 39 1003
22 18:00 2 10km以上 35 42 1003
22 17:30 3 10km以上 36 35 1003
22 17:00 3 10km以上 37 31 1003
22 16:30 3 10km以上 38 27 1003
22 16:00 北北西 4 10km以上 39 24 1003
22 15:30 北北西 3 10km以上 39 26 1003
22 15:00 北北西 5 10km以上 39 12 1003
22 14:30 北西 5 10km以上 39 13 1003
22 14:00 西北西 5 10km以上 39 20 1003
22 13:30 西北西 5 10km以上 39 20 1004
22 13:00 北西 5 10km以上 39 15 1004
22 12:30 西 4 10km以上 38 31 1004
22 12:00 西 4 10km以上 38 33 1005
22 11:30 西 4 10km以上 37 42 1005
22 11:00 西 4 10km以上 36 50 1005
22 10:30 西 4 10km以上 35 56 1005
22 10:00 北西 6 10km以上 34 67 1006
22 09:30 西北西 5 10km以上 34 67 1006
22 09:00 西北西 6 10km以上 33 71 1006
22 08:30 西北西 5 10km以上 33 71 1006
22 08:00 西北西 5 10km以上 33 71 1006
22 07:30 北西 3 10km以上 33 63 1005
22 07:00 西北西 2 10km以上 33 67 1005
22 06:30 北西 2 10km以上 32 67 1005
22 06:00 西北西 2 10km以上 31 70 1004
22 05:30 北西 2 10km以上 30 75 1004
22 05:00 西 1 10km以上 32 67 1004
22 04:30 西 1 10km以上 32 67 1004
22 04:00 不定 1 10km以上 31 70 1004
22 03:30 静穏 0 10km以上 32 67 1004
22 03:00 不定 1 10km以上 32 67 1004
22 02:30 西北西 2 10km以上 32 67 1003
22 02:00 不定 1 10km以上 32 67 1003
22 01:30 不定 1 10km以上 32 67 1003
22 01:00 北北東 3 10km以上 32 67 1003
22 00:30 3 10km以上 33 63 1003
22 00:00 北東 3 10km以上 32 67 1003
21 23:30 北東 3 10km以上 33 63 1003
21 23:00 北東 3 10km以上 33 63 1003
21 22:30 北東 2 10km以上 33 63 1003
21 22:00 東北東 1 10km以上 32 67 1003
21 21:30 東南東 2 10km以上 33 63 1003
21 21:00 東南東 3 10km以上 33 63 1003
21 20:30 4 10km以上 33 59 1003
21 20:00 4 10km以上 33 63 1003
21 19:30 4 10km以上 34 56 1003
21 19:00 4 10km以上 34 56 1003
21 18:30 4 10km以上 34 53 1002
21 18:00 東北東 4 10km以上 34 53 1002
21 17:30 東北東 4 10km以上 35 53 1002
21 17:00 北東 4 10km以上 35 53 1002
21 16:30 東北東 3 10km以上 36 47 1002
21 16:00 北東 3 10km以上 37 47 1001
21 15:30 東北東 4 10km以上 37 47 1001
21 15:00 北北東 4 10km以上 38 42 1001
21 14:30 3 10km以上 38 35 1002
21 14:00 4 10km以上 38 37 1002
21 13:30 3 10km以上 39 31 1002
21 13:00 2 10km以上 39 29 1002
21 12:30 3 10km以上 38 35 1003
21 12:00 北北東 3 10km以上 38 35 1003
21 11:30 3 9000m 38 35 1003
21 11:00 3 9000m 37 42 1004
21 10:30 北西 3 9000m 36 47 1004
21 10:00 北西 3 10km以上 36 47 1004
21 09:30 北西 3 10km以上 35 50 1004
21 09:00 北西 5 10km以上 35 44 1004
21 08:30 北西 4 10km以上 35 44 1004
21 08:00 西 3 10km以上 35 39 1004
21 07:30 西北西 3 10km以上 34 44 1004
21 07:00 西 2 10km以上 34 44 1004
21 06:30 西 2 10km以上 33 53 1004
21 06:00 西 3 10km以上 32 56 1003
21 05:30 西 3 10km以上 32 56 1003
21 05:00 西 3 10km以上 33 56 1003
21 04:30 西 3 10km以上 33 59 1003
21 04:00 西 2 10km以上 32 67 1003
21 03:30 西 3 10km以上 32 71 1002
21 03:00 西 3 10km以上 33 63 1002
21 02:30 西 2 10km以上 33 63 1002
21 02:00 静穏 0 10km以上 32 67 1002
21 01:30 西 2 10km以上 33 63 1002
21 01:00 西 2 10km以上 33 63 1002
21 00:30 西北西 3 10km以上 33 67 1003
21 00:00 西北西 3 8000m 33 71 1003
20 23:30 北西 2 8000m 32 71 1003
20 23:00 北北西 2 8000m 33 71 1003
20 22:30 不定 1 8000m 33 71 1003
20 22:00 不定 1 10km以上 33 71 1003
20 21:30 東北東 2 10km以上 33 67 1003
20 21:00 北東 2 10km以上 34 67 1003
OBBI 221730Z VRB02KT CAVOK 34/22 Q1004 NOSIG
OBBI 221700Z VRB01KT CAVOK 33/22 Q1003 NOSIG
OBBI 221630Z 05003KT 360V070 CAVOK 34/22 Q1003 NOSIG
OBBI 221600Z 01003KT 340V040 CAVOK 35/21 Q1003 NOSIG
OBBI 221530Z 02003KT CAVOK 35/19 Q1003 NOSIG
OBBI 221500Z 01004KT CAVOK 35/20 Q1003 NOSIG
OBBI 221430Z 01005KT CAVOK 36/18 Q1003 NOSIG
OBBI 221400Z 01005KT CAVOK 37/17 Q1003 NOSIG
OBBI 221330Z 36005KT 330V060 CAVOK 38/16 Q1003 NOSIG
OBBI 221300Z 33007KT CAVOK 39/15 Q1003 NOSIG
OBBI 221230Z 34006KT CAVOK 39/16 Q1003 NOSIG
OBBI 221200Z 33009KT CAVOK 39/04 Q1003 NOSIG
OBBI 221130Z 32009KT CAVOK 39/06 Q1003 NOSIG
OBBI 221100Z 30009KT CAVOK 39/12 Q1003 NOSIG
OBBI 221030Z 30010KT CAVOK 39/12 Q1004 NOSIG
OBBI 221000Z 31009KT CAVOK 39/08 Q1004 NOSIG
OBBI 220930Z 28008KT 250V310 CAVOK 38/18 Q1004 NOSIG
OBBI 220900Z 27008KT 240V320 CAVOK 38/19 Q1005 NOSIG
OBBI 220830Z 28007KT 230V330 CAVOK 37/22 Q1005 NOSIG
OBBI 220800Z 27007KT 230V300 CAVOK 36/24 Q1005 NOSIG
OBBI 220730Z 28007KT 240V330 CAVOK 35/25 Q1005 NOSIG
OBBI 220700Z 31012KT CAVOK 34/27 Q1006 NOSIG
OBBI 220630Z 30010KT 250V330 CAVOK 34/27 Q1006 NOSIG
OBBI 220600Z 30012KT CAVOK 33/27 Q1006 NOSIG
OBBI 220530Z 30009KT CAVOK 33/27 Q1006 NOSIG
OBBI 220500Z 30009KT 270V330 CAVOK 33/27 Q1006 NOSIG
OBBI 220430Z 31005KT CAVOK 33/25 Q1005 NOSIG
OBBI 220400Z 29004KT 250V320 CAVOK 33/26 Q1005 NOSIG
OBBI 220330Z 31003KT CAVOK 32/25 Q1005 NOSIG
OBBI 220300Z 30004KT CAVOK 31/25 Q1004 NOSIG
OBBI 220230Z 31003KT CAVOK 30/25 Q1004 NOSIG
OBBI 220200Z 26002KT CAVOK 32/25 Q1004 NOSIG
OBBI 220130Z 28002KT CAVOK 32/25 Q1004 NOSIG
OBBI 220100Z VRB01KT CAVOK 31/25 Q1004 NOSIG
OBBI 220030Z 00000KT CAVOK 32/25 Q1004 NOSIG
OBBI 220000Z VRB02KT CAVOK 32/25 Q1004 NOSIG
OBBI 212330Z 30003KT CAVOK 32/25 Q1003 NOSIG
OBBI 212300Z VRB02KT CAVOK 32/25 Q1003 NOSIG
OBBI 212230Z VRB02KT CAVOK 32/25 Q1003 NOSIG
OBBI 212200Z 03005KT 350V060 CAVOK 32/25 Q1003 NOSIG
OBBI 212130Z VRB05KT CAVOK 33/25 Q1003 NOSIG
OBBI 212100Z 04005KT CAVOK 32/25 Q1003 NOSIG
OBBI 212030Z 05006KT CAVOK 33/25 Q1003 NOSIG
OBBI 212000Z 05006KT CAVOK 33/25 Q1003 NOSIG
OBBI 211930Z 05004KT CAVOK 33/25 Q1003 NOSIG
OBBI 211900Z 06002KT CAVOK 32/25 Q1003 NOSIG
OBBI 211830Z 12004KT CAVOK 33/25 Q1003 NOSIG
OBBI 211800Z 11005KT CAVOK 33/25 Q1003 NOSIG
OBBI 211730Z 09007KT CAVOK 33/24 Q1003 NOSIG
OBBI 211700Z 09007KT CAVOK 33/25 Q1003 NOSIG
OBBI 211630Z 09007KT CAVOK 34/24 Q1003 NOSIG
OBBI 211600Z 08008KT CAVOK 34/24 Q1003 NOSIG
OBBI 211530Z 08008KT CAVOK 34/23 Q1002 NOSIG
OBBI 211500Z 07007KT CAVOK 34/23 Q1002 NOSIG
OBBI 211430Z 06007KT CAVOK 35/24 Q1002 NOSIG
OBBI 211400Z 05008KT CAVOK 35/24 Q1002 NOSIG
OBBI 211330Z 06006KT 030V090 CAVOK 36/23 Q1002 NOSIG
OBBI 211300Z 05006KT 030V090 CAVOK 37/24 Q1001 NOSIG
OBBI 211230Z 06007KT CAVOK 37/24 Q1001 NOSIG
OBBI 211200Z 02007KT 350V070 CAVOK 38/23 Q1001 NOSIG
OBBI 211130Z 01006KT 320V040 CAVOK 38/20 Q1002 NOSIG
OBBI 211100Z 36007KT 330V080 CAVOK 38/21 Q1002 NOSIG
OBBI 211030Z 01006KT CAVOK 39/19 Q1002 NOSIG
OBBI 211000Z 36004KT 270V050 CAVOK 39/18 Q1002 NOSIG
OBBI 210930Z 01005KT 280V060 CAVOK 38/20 Q1003 NOSIG
OBBI 210900Z 02006KT 330V060 CAVOK 38/20 Q1003 NOSIG
OBBI 210830Z 01006KT 330V050 9000 SKC 38/20 Q1003 NOSIG
OBBI 210800Z 01005KT 330V050 9000 SKC 37/22 Q1004 NOSIG
OBBI 210730Z 32006KT 270V350 9000 SKC 36/23 Q1004 NOSIG
OBBI 210700Z 32006KT 270V360 CAVOK 36/23 Q1004 NOSIG
OBBI 210630Z 31006KT 250V350 CAVOK 35/23 Q1004 NOSIG
OBBI 210600Z 31009KT CAVOK 35/21 Q1004 NOSIG
OBBI 210530Z 31008KT CAVOK 35/21 Q1004 NOSIG
OBBI 210500Z 28006KT 250V310 CAVOK 35/19 Q1004 NOSIG
OBBI 210430Z 29006KT CAVOK 34/20 Q1004 NOSIG
OBBI 210400Z 28004KT 220V310 CAVOK 34/20 Q1004 NOSIG
OBBI 210330Z 27004KT 250V310 CAVOK 33/22 Q1004 NOSIG
OBBI 210300Z 28005KT CAVOK 32/22 Q1003 NOSIG
OBBI 210230Z 28005KT CAVOK 32/22 Q1003 NOSIG
OBBI 210200Z 28006KT CAVOK 33/23 Q1003 NOSIG
OBBI 210130Z 28005KT CAVOK 33/24 Q1003 NOSIG
OBBI 210100Z 27004KT 230V300 CAVOK 32/25 Q1003 NOSIG
OBBI 210030Z 28005KT CAVOK 32/26 Q1002 NOSIG
OBBI 210000Z 28005KT CAVOK 33/25 Q1002 NOSIG
OBBI 202330Z 28003KT CAVOK 33/25 Q1002 NOSIG
OBBI 202300Z 00000KT CAVOK 32/25 Q1002 NOSIG
OBBI 202230Z 27003KT 240V300 CAVOK 33/25 Q1002 NOSIG
OBBI 202200Z 27004KT CAVOK 33/25 Q1002 NOSIG
OBBI 202130Z 29005KT CAVOK 33/26 Q1003 NOSIG
OBBI 202100Z 30005KT 8000 SKC 33/27 Q1003 NOSIG
OBBI 202030Z 32004KT 8000 SKC 32/26 Q1003 NOSIG
OBBI 202000Z 33004KT 8000 SKC 33/27 Q1003 NOSIG
OBBI 201930Z VRB02KT 8000 SKC 33/27 Q1003 NOSIG
OBBI 201900Z VRB02KT CAVOK 33/27 Q1003 NOSIG
OBBI 201830Z 07004KT 040V100 CAVOK 33/26 Q1003 NOSIG
OBBI 201800Z 04004KT CAVOK 34/27 Q1003 NOSIG